Time;durP1;ratioP1;P1;durP2;ratioP2;P2;SDS_P1;SDS_P2;PMS_P1;PMS_P2;Temp;Humidity;BMP_temperature;BMP_pressure;BME280_temperature;BME280_humidity;BME280_pressure;Samples;Min_cycle;Max_cycle;Signal;HPM_P1;HPM_P2
2021/11/27 00:02:22;;;;;;;;;;;5.30;99.90;;;;;;4993307;28;20386;-80
2021/11/27 00:04:47;;;;;;;;;;;5.30;99.90;;;;;;4994928;28;19917;-80
2021/11/27 00:07:13;;;;;;;;;;;5.30;99.90;;;;;;4982704;28;19914;-79
2021/11/27 00:09:38;;;;;;;;;;;5.30;99.90;;;;;;4979577;28;20008;-80
2021/11/27 00:12:04;;;;;;;;;;;5.30;99.90;;;;;;4991194;28;19920;-80
2021/11/27 00:14:31;;;;;;;;;;;5.30;99.90;;;;;;4984303;28;19986;-80
2021/11/27 00:16:56;;;;;;;;;;;5.30;99.90;;;;;;4986001;28;19961;-82
2021/11/27 00:19:22;;;;;;;;;;;5.30;99.90;;;;;;4985953;28;20140;-82
2021/11/27 00:21:47;;;;;;;;;;;5.30;99.90;;;;;;4983340;28;20345;-80
2021/11/27 00:24:13;;;;;;;;;;;5.30;1.00;;;;;;4987818;28;19910;-80
2021/11/27 00:26:39;;;;;;;;;;;5.30;1.00;;;;;;4995345;28;19910;-80
2021/11/27 00:29:04;;;;;;;;;;;5.20;1.00;;;;;;4988547;28;19921;-80
2021/11/27 00:31:30;;;;;;;;;;;5.20;1.00;;;;;;4978066;28;20129;-80
2021/11/27 00:33:57;;;;;;;;;;;5.20;1.00;;;;;;4991730;28;19929;-82
2021/11/27 00:36:22;;;;;;;;;;;5.10;1.00;;;;;;4989459;28;19992;-80
2021/11/27 00:38:48;;;;;;;;;;;5.10;1.00;;;;;;4991518;28;20008;-80
2021/11/27 00:41:14;;;;;;;;;;;5.10;1.00;;;;;;4985387;28;19914;-80
2021/11/27 00:43:39;;;;;;;;;;;5.10;1.00;;;;;;4991347;28;19921;-80
2021/11/27 00:46:05;;;;;;;;;;;5.10;1.00;;;;;;4983956;28;19910;-80
2021/11/27 00:48:30;;;;;;;;;;;5.20;1.00;;;;;;4994843;28;19969;-80
2021/11/27 00:50:58;;;;;;;;;;;5.10;1.00;;;;;;4985921;28;19919;-80
2021/11/27 00:53:23;;;;;;;;;;;5.10;1.00;;;;;;4986756;28;19930;-83
2021/11/27 00:55:49;;;;;;;;;;;5.10;1.00;;;;;;4992624;28;19997;-80
2021/11/27 00:58:15;;;;;;;;;;;5.10;1.00;;;;;;4995501;28;19914;-80
2021/11/27 01:00:50;;;;;;;;;;;5.10;1.00;;;;;;4997030;28;19914;-81
2021/11/27 01:03:16;;;;;;;;;;;5.10;1.00;;;;;;4987196;28;19917;-80
2021/11/27 01:05:42;;;;;;;;;;;5.10;1.00;;;;;;4994208;28;19914;-80
2021/11/27 01:08:08;;;;;;;;;;;5.10;1.00;;;;;;4993155;28;20382;-81
2021/11/27 01:10:36;;;;;;;;;;;5.10;1.00;;;;;;4991089;28;19998;-81
2021/11/27 01:13:02;;;;;;;;;;;5.10;1.00;;;;;;4989793;28;20279;-81
2021/11/27 01:15:29;;;;;;;;;;;5.10;1.00;;;;;;4993041;28;19925;-79
2021/11/27 01:17:55;;;;;;;;;;;5.10;1.00;;;;;;4994318;28;19925;-80
2021/11/27 01:20:22;;;;;;;;;;;5.00;1.00;;;;;;4991858;28;20530;-81
2021/11/27 01:22:48;;;;;;;;;;;5.00;1.00;;;;;;4996481;28;19909;-81
2021/11/27 01:25:14;;;;;;;;;;;5.00;1.00;;;;;;4989117;28;19997;-80
2021/11/27 01:27:39;;;;;;;;;;;5.00;1.00;;;;;;4988435;28;19983;-81
2021/11/27 01:30:06;;;;;;;;;;;5.00;1.00;;;;;;4993345;28;19913;-81
2021/11/27 01:32:31;;;;;;;;;;;5.00;1.00;;;;;;4992966;28;19922;-80
2021/11/27 01:34:57;;;;;;;;;;;5.00;1.00;;;;;;4989574;28;19922;-81
2021/11/27 01:37:22;;;;;;;;;;;4.90;1.00;;;;;;4993827;28;20317;-81
2021/11/27 01:39:48;;;;;;;;;;;4.90;1.00;;;;;;4987597;28;20020;-81
2021/11/27 01:42:13;;;;;;;;;;;4.90;1.00;;;;;;4994505;28;20369;-81
2021/11/27 01:44:39;;;;;;;;;;;4.80;1.00;;;;;;4996408;28;19914;-81
2021/11/27 01:47:05;;;;;;;;;;;4.80;1.00;;;;;;4994796;28;19913;-80
2021/11/27 01:49:31;;;;;;;;;;;4.80;1.00;;;;;;4996953;28;19913;-81
2021/11/27 01:51:56;;;;;;;;;;;4.80;1.00;;;;;;4995403;28;20379;-80
2021/11/27 01:54:22;;;;;;;;;;;4.70;1.00;;;;;;4983982;28;19918;-80
2021/11/27 01:56:51;;;;;;;;;;;4.60;1.00;;;;;;4990000;28;19960;-80
2021/11/27 01:59:17;;;;;;;;;;;4.50;1.00;;;;;;4992038;28;19925;-80
2021/11/27 02:01:43;;;;;;;;;;;4.50;1.00;;;;;;4991647;28;19914;-80
2021/11/27 02:04:09;;;;;;;;;;;4.40;1.00;;;;;;4990157;28;19949;-81
2021/11/27 02:06:35;;;;;;;;;;;4.40;1.00;;;;;;4997002;28;20469;-80
2021/11/27 02:09:03;;;;;;;;;;;4.40;1.00;;;;;;4994551;28;19938;-81
2021/11/27 02:11:30;;;;;;;;;;;4.40;1.00;;;;;;4987156;28;19920;-81
2021/11/27 02:13:56;;;;;;;;;;;4.30;1.00;;;;;;4988832;28;20004;-81
2021/11/27 02:16:22;;;;;;;;;;;4.30;1.00;;;;;;4988656;28;20393;-81
2021/11/27 02:18:48;;;;;;;;;;;4.30;1.00;;;;;;4994465;28;20008;-81
2021/11/27 02:21:15;;;;;;;;;;;4.20;1.00;;;;;;4984085;28;20325;-80
2021/11/27 02:23:40;;;;;;;;;;;4.10;1.00;;;;;;4992420;28;19914;-81
2021/11/27 02:26:07;;;;;;;;;;;4.10;1.00;;;;;;4987932;28;19921;-80
2021/11/27 02:28:34;;;;;;;;;;;4.00;1.00;;;;;;4994747;28;19918;-81
2021/11/27 02:31:00;;;;;;;;;;;4.00;1.00;;;;;;4986162;28;19918;-81
2021/11/27 02:33:25;;;;;;;;;;;4.00;1.00;;;;;;4982267;28;20013;-80
2021/11/27 02:35:51;;;;;;;;;;;4.00;1.00;;;;;;4987955;28;19922;-81
2021/11/27 02:38:16;;;;;;;;;;;4.00;1.00;;;;;;4988002;28;19918;-81
2021/11/27 02:40:42;;;;;;;;;;;4.00;1.00;;;;;;4988797;28;19921;-81
2021/11/27 02:43:08;;;;;;;;;;;3.90;1.00;;;;;;4994698;28;20433;-80
2021/11/27 02:45:33;;;;;;;;;;;3.90;1.00;;;;;;4992057;28;19968;-80
2021/11/27 02:47:59;;;;;;;;;;;3.90;1.00;;;;;;4990248;28;19921;-82
2021/11/27 02:50:24;;;;;;;;;;;3.80;1.00;;;;;;4995692;28;19914;-81
2021/11/27 02:52:50;;;;;;;;;;;3.80;1.00;;;;;;4992634;28;19913;-81
2021/11/27 02:55:15;;;;;;;;;;;3.90;1.00;;;;;;4990391;28;19960;-80
2021/11/27 02:57:41;;;;;;;;;;;3.90;1.00;;;;;;4989363;28;19926;-80
2021/11/27 03:00:09;;;;;;;;;;;3.90;1.00;;;;;;4994839;28;19910;-81
2021/11/27 03:02:35;;;;;;;;;;;3.90;1.00;;;;;;4984860;28;19922;-80
2021/11/27 03:05:00;;;;;;;;;;;3.90;1.00;;;;;;4992250;28;20273;-81
2021/11/27 03:07:26;;;;;;;;;;;3.90;1.00;;;;;;4983522;28;19916;-81
2021/11/27 03:09:51;;;;;;;;;;;3.90;1.00;;;;;;4991397;28;20397;-81
2021/11/27 03:12:17;;;;;;;;;;;3.90;1.00;;;;;;4994224;28;20040;-81
2021/11/27 03:14:43;;;;;;;;;;;3.90;1.00;;;;;;4988500;28;20370;-81
2021/11/27 03:17:08;;;;;;;;;;;3.90;1.00;;;;;;4992239;28;19917;-81
2021/11/27 03:19:35;;;;;;;;;;;4.00;1.00;;;;;;4985823;28;20366;-81
2021/11/27 03:22:01;;;;;;;;;;;4.00;1.00;;;;;;4991859;28;19917;-81
2021/11/27 03:24:26;;;;;;;;;;;4.00;1.00;;;;;;4989828;28;20318;-81
2021/11/27 03:26:52;;;;;;;;;;;4.00;1.00;;;;;;4989440;28;19918;-81
2021/11/27 03:29:17;;;;;;;;;;;4.00;1.00;;;;;;4993305;28;19917;-81
2021/11/27 03:31:43;;;;;;;;;;;4.00;1.00;;;;;;4986719;28;20277;-81
2021/11/27 03:34:08;;;;;;;;;;;4.00;1.00;;;;;;4993128;28;20041;-81
2021/11/27 03:36:34;;;;;;;;;;;4.00;1.00;;;;;;4990296;28;19961;-81
2021/11/27 03:39:00;;;;;;;;;;;4.00;1.00;;;;;;4989197;28;20477;-80
2021/11/27 03:41:25;;;;;;;;;;;4.00;1.00;;;;;;4986840;28;19921;-81
2021/11/27 03:43:51;;;;;;;;;;;4.00;1.00;;;;;;5000864;28;20273;-80
2021/11/27 03:46:16;;;;;;;;;;;4.10;1.00;;;;;;4986010;28;19934;-80
2021/11/27 03:48:43;;;;;;;;;;;4.10;1.00;;;;;;4993281;28;19920;-81
2021/11/27 03:51:11;;;;;;;;;;;4.10;1.00;;;;;;4988186;28;19916;-81
2021/11/27 03:53:38;;;;;;;;;;;4.10;1.00;;;;;;4985891;28;19909;-80
2021/11/27 03:56:05;;;;;;;;;;;4.10;1.00;;;;;;4992503;28;19914;-81
2021/11/27 03:58:31;;;;;;;;;;;4.10;1.00;;;;;;4983889;28;19914;-81
2021/11/27 04:00:56;;;;;;;;;;;4.00;1.00;;;;;;4993693;28;19910;-81
2021/11/27 04:03:22;;;;;;;;;;;4.00;1.00;;;;;;4989283;28;19949;-81
2021/11/27 04:05:54;;;;;;;;;;;4.00;1.00;;;;;;4991734;28;19916;-81
2021/11/27 04:08:20;;;;;;;;;;;4.00;1.00;;;;;;4977043;28;19992;-81
2021/11/27 04:10:46;;;;;;;;;;;4.00;1.00;;;;;;4998387;28;19910;-81
2021/11/27 04:13:12;;;;;;;;;;;4.00;1.00;;;;;;4989133;28;19980;-81
2021/11/27 04:15:38;;;;;;;;;;;3.90;1.00;;;;;;4996205;28;19914;-81
2021/11/27 04:18:03;;;;;;;;;;;3.80;1.00;;;;;;4982423;28;19917;-81
2021/11/27 04:20:29;;;;;;;;;;;3.70;1.00;;;;;;4995345;28;20283;-81
2021/11/27 04:22:54;;;;;;;;;;;3.70;1.00;;;;;;4994741;28;20305;-81
2021/11/27 04:25:20;;;;;;;;;;;3.60;1.00;;;;;;4992385;28;19910;-81
2021/11/27 04:27:45;;;;;;;;;;;3.60;1.00;;;;;;4991220;28;19910;-80
2021/11/27 04:30:14;;;;;;;;;;;3.60;1.00;;;;;;4996949;28;19918;-81
2021/11/27 04:32:39;;;;;;;;;;;3.60;1.00;;;;;;4994964;28;19910;-80
2021/11/27 04:35:05;;;;;;;;;;;3.60;1.00;;;;;;4989834;28;19920;-81
2021/11/27 04:37:31;;;;;;;;;;;3.50;1.00;;;;;;4991333;28;19985;-81
2021/11/27 04:40:03;;;;;;;;;;;3.50;1.00;;;;;;5039525;23;19928;-86
2021/11/27 04:42:29;;;;;;;;;;;3.50;1.00;;;;;;5025358;28;20339;-86
2021/11/27 04:44:55;;;;;;;;;;;3.50;1.00;;;;;;5035606;28;19909;-86
2021/11/27 04:47:20;;;;;;;;;;;3.50;1.00;;;;;;5032909;28;19929;-86
2021/11/27 04:49:46;;;;;;;;;;;3.50;1.00;;;;;;5028209;28;19914;-86
2021/11/27 04:52:11;;;;;;;;;;;3.50;1.00;;;;;;5023395;28;20400;-85
2021/11/27 04:54:37;;;;;;;;;;;3.50;1.00;;;;;;5021146;28;20023;-86
2021/11/27 04:57:10;;;;;;;;;;;3.50;1.00;;;;;;5017511;28;19920;-86
2021/11/27 04:59:38;;;;;;;;;;;3.50;1.00;;;;;;5026776;28;19971;-86
2021/11/27 05:02:12;;;;;;;;;;;3.50;1.00;;;;;;5020220;28;19914;-83
2021/11/27 05:04:44;;;;;;;;;;;3.50;1.00;;;;;;5027752;28;19947;-83
2021/11/27 05:07:16;;;;;;;;;;;3.60;1.00;;;;;;5021444;28;19984;-84
2021/11/27 05:09:41;;;;;;;;;;;3.50;1.00;;;;;;5030776;28;19913;-83
2021/11/27 05:12:09;;;;;;;;;;;3.50;1.00;;;;;;5022326;28;20025;-83
2021/11/27 05:14:35;;;;;;;;;;;3.60;1.00;;;;;;5018345;28;19980;-83
2021/11/27 05:17:04;;;;;;;;;;;3.60;1.00;;;;;;5028846;28;19967;-83
2021/11/27 05:19:29;;;;;;;;;;;3.60;1.00;;;;;;5024855;28;19976;-83
2021/11/27 05:21:55;;;;;;;;;;;3.70;1.00;;;;;;5020656;28;19963;-84
2021/11/27 05:24:20;;;;;;;;;;;3.70;1.00;;;;;;5012881;28;19924;-83
2021/11/27 05:26:46;;;;;;;;;;;3.70;1.00;;;;;;5020923;28;20398;-83
2021/11/27 05:29:14;;;;;;;;;;;3.80;1.00;;;;;;5020794;28;19913;-82
2021/11/27 05:31:45;;;;;;;;;;;3.80;1.00;;;;;;5019943;28;19936;-83
2021/11/27 05:34:31;;;;;;;;;;;3.80;1.00;;;;;;5019610;28;20410;-85
2021/11/27 05:36:57;;;;;;;;;;;3.80;1.00;;;;;;5020914;28;19947;-83
2021/11/27 05:39:23;;;;;;;;;;;3.80;1.00;;;;;;5019906;28;19917;-83
2021/11/27 05:41:48;;;;;;;;;;;3.80;1.00;;;;;;5017707;28;19914;-84
2021/11/27 05:44:14;;;;;;;;;;;3.80;1.00;;;;;;5014644;28;20549;-84
2021/11/27 05:46:39;;;;;;;;;;;3.70;1.00;;;;;;5011996;28;19921;-84
2021/11/27 05:49:04;;;;;;;;;;;3.70;1.00;;;;;;5000991;28;19933;-83
2021/11/27 05:51:30;;;;;;;;;;;3.60;1.00;;;;;;5006169;28;19924;-83
2021/11/27 05:53:56;;;;;;;;;;;3.60;1.00;;;;;;5020851;28;20297;-86
2021/11/27 05:56:21;;;;;;;;;;;3.60;1.00;;;;;;5011044;28;19983;-86
2021/11/27 05:58:47;;;;;;;;;;;3.60;1.00;;;;;;5015553;28;20305;-86
2021/11/27 06:01:12;;;;;;;;;;;3.60;1.00;;;;;;5014217;28;19913;-87
2021/11/27 06:03:38;;;;;;;;;;;3.70;1.00;;;;;;5016250;28;19972;-86
2021/11/27 06:06:04;;;;;;;;;;;3.70;1.00;;;;;;5019751;28;20301;-85
2021/11/27 06:08:30;;;;;;;;;;;3.70;1.00;;;;;;5019300;28;20289;-86
2021/11/27 06:10:56;;;;;;;;;;;3.80;1.00;;;;;;5019012;28;19910;-86
2021/11/27 06:13:31;;;;;;;;;;;3.80;1.00;;;;;;5014661;28;19921;-86
2021/11/27 06:15:57;;;;;;;;;;;3.80;1.00;;;;;;5018420;28;19913;-86
2021/11/27 06:18:22;;;;;;;;;;;3.80;1.00;;;;;;5012873;28;19913;-86
2021/11/27 06:20:48;;;;;;;;;;;3.80;1.00;;;;;;5013956;28;19913;-86
2021/11/27 06:23:16;;;;;;;;;;;3.70;1.00;;;;;;5016436;28;19956;-86
2021/11/27 06:25:41;;;;;;;;;;;3.70;1.00;;;;;;5017557;28;20270;-86
2021/11/27 06:28:08;;;;;;;;;;;3.70;1.00;;;;;;5017236;28;19967;-86
2021/11/27 06:30:34;;;;;;;;;;;3.70;1.00;;;;;;5023389;28;20028;-86
2021/11/27 06:33:00;;;;;;;;;;;3.70;1.00;;;;;;5030928;28;20448;-85
2021/11/27 06:35:25;;;;;;;;;;;3.70;1.00;;;;;;5023412;28;19924;-86
2021/11/27 06:37:51;;;;;;;;;;;3.70;1.00;;;;;;5022213;28;19913;-86
2021/11/27 06:40:16;;;;;;;;;;;3.70;1.00;;;;;;5019277;28;19972;-86
2021/11/27 06:42:42;;;;;;;;;;;3.70;1.00;;;;;;5017393;28;19913;-87
2021/11/27 06:45:07;;;;;;;;;;;3.80;1.00;;;;;;5019096;28;20365;-87
2021/11/27 06:47:33;;;;;;;;;;;3.90;1.00;;;;;;5029524;28;19913;-86
2021/11/27 06:49:59;;;;;;;;;;;3.90;1.00;;;;;;5035842;28;19913;-88
2021/11/27 06:52:24;;;;;;;;;;;4.00;1.00;;;;;;5016996;28;19913;-86
2021/11/27 06:54:49;;;;;;;;;;;4.00;1.00;;;;;;5028326;28;19913;-88
2021/11/27 06:57:15;;;;;;;;;;;4.00;1.00;;;;;;5026631;28;19910;-86
2021/11/27 06:59:41;;;;;;;;;;;4.00;1.00;;;;;;5018969;28;19920;-86
2021/11/27 07:02:06;;;;;;;;;;;4.10;1.00;;;;;;5019347;28;19915;-86
2021/11/27 07:04:32;;;;;;;;;;;4.10;1.00;;;;;;5027781;28;20415;-86
2021/11/27 07:06:58;;;;;;;;;;;4.10;1.00;;;;;;5030091;28;20285;-87
2021/11/27 07:09:23;;;;;;;;;;;4.00;1.00;;;;;;5016634;28;19913;-86
2021/11/27 07:11:49;;;;;;;;;;;4.00;1.00;;;;;;5008569;28;19920;-87
2021/11/27 07:14:15;;;;;;;;;;;4.00;1.00;;;;;;5028643;28;19920;-86
2021/11/27 07:16:40;;;;;;;;;;;4.00;1.00;;;;;;5021666;28;19929;-87
2021/11/27 07:19:06;;;;;;;;;;;4.00;1.00;;;;;;5024648;28;19921;-84
2021/11/27 07:21:31;;;;;;;;;;;4.00;1.00;;;;;;5023566;28;19909;-87
2021/11/27 07:23:57;;;;;;;;;;;4.00;1.00;;;;;;5025939;28;19913;-87
2021/11/27 07:26:22;;;;;;;;;;;4.00;1.00;;;;;;5010120;28;20016;-87
2021/11/27 07:28:48;;;;;;;;;;;4.00;1.00;;;;;;5010100;28;20271;-85
2021/11/27 07:31:14;;;;;;;;;;;4.00;1.00;;;;;;5014848;28;20004;-86
2021/11/27 07:33:39;;;;;;;;;;;4.00;1.00;;;;;;5011541;28;19985;-85
2021/11/27 07:36:05;;;;;;;;;;;3.90;1.00;;;;;;5030992;28;20000;-86
2021/11/27 07:38:31;;;;;;;;;;;4.00;1.00;;;;;;5016010;28;20295;-86
2021/11/27 07:40:57;;;;;;;;;;;4.00;1.00;;;;;;5017193;28;19926;-87
2021/11/27 07:43:23;;;;;;;;;;;4.00;1.00;;;;;;5021600;28;19919;-86
2021/11/27 07:45:48;;;;;;;;;;;4.10;1.00;;;;;;5019710;28;19914;-87
2021/11/27 07:48:14;;;;;;;;;;;4.20;1.00;;;;;;5027361;28;19917;-86
2021/11/27 07:50:39;;;;;;;;;;;4.30;99.90;;;;;;5031125;28;19909;-85
2021/11/27 07:53:05;;;;;;;;;;;4.50;99.90;;;;;;5031202;28;20018;-86
2021/11/27 07:55:30;;;;;;;;;;;4.60;99.90;;;;;;5023190;28;19920;-83
2021/11/27 07:57:56;;;;;;;;;;;4.60;99.90;;;;;;5013486;28;19917;-83
2021/11/27 08:00:21;;;;;;;;;;;4.70;99.90;;;;;;5025980;28;19913;-84
2021/11/27 08:02:47;;;;;;;;;;;4.90;99.90;;;;;;5019381;28;19929;-84
2021/11/27 08:05:12;;;;;;;;;;;5.10;99.90;;;;;;5032899;28;19928;-85
2021/11/27 08:07:38;;;;;;;;;;;5.70;1.00;;;;;;5029097;28;19967;-84
2021/11/27 08:10:05;;;;;;;;;;;6.30;30.10;;;;;;5005843;28;19914;-82
2021/11/27 08:12:30;;;;;;;;;;;7.20;1.00;;;;;;5018936;28;19976;-83
2021/11/27 08:14:56;;;;;;;;;;;8.80;99.90;;;;;;5011170;28;19976;-85
2021/11/27 08:17:21;;;;;;;;;;;10.30;1.00;;;;;;5005098;28;20000;-87
2021/11/27 08:19:47;;;;;;;;;;;11.70;1.00;;;;;;5017329;28;19941;-83
2021/11/27 08:22:12;;;;;;;;;;;12.70;1.00;;;;;;5025231;28;19917;-84
2021/11/27 08:24:38;;;;;;;;;;;13.60;1.00;;;;;;5000207;28;19914;-83
2021/11/27 08:27:03;;;;;;;;;;;14.40;1.00;;;;;;5005893;28;19996;-84
2021/11/27 08:29:29;;;;;;;;;;;15.00;1.00;;;;;;5010662;28;19913;-85
2021/11/27 08:31:54;;;;;;;;;;;15.40;1.00;;;;;;5016635;28;19960;-84
2021/11/27 08:34:19;;;;;;;;;;;16.10;1.00;;;;;;5032608;28;19913;-84
2021/11/27 08:36:45;;;;;;;;;;;16.50;1.00;;;;;;5015767;28;19918;-84
2021/11/27 08:39:10;;;;;;;;;;;16.90;1.00;;;;;;5006627;28;19925;-84
2021/11/27 08:41:36;;;;;;;;;;;17.40;1.00;;;;;;5002370;28;20350;-85
2021/11/27 08:44:01;;;;;;;;;;;17.70;1.00;;;;;;5012652;28;19948;-84
2021/11/27 08:46:27;;;;;;;;;;;17.80;1.00;;;;;;5007386;28;19913;-86
2021/11/27 08:48:52;;;;;;;;;;;17.80;1.00;;;;;;5008224;28;19915;-87
2021/11/27 08:51:18;;;;;;;;;;;17.50;1.00;;;;;;4997005;28;19914;-89
2021/11/27 08:53:44;;;;;;;;;;;16.70;1.00;;;;;;4995465;28;20285;-86
2021/11/27 08:56:09;;;;;;;;;;;15.70;1.00;;;;;;5015360;28;19957;-86
2021/11/27 08:58:35;;;;;;;;;;;14.80;1.00;;;;;;5015448;28;20413;-86
2021/11/27 09:01:01;;;;;;;;;;;14.00;1.00;;;;;;5017272;28;19955;-87
2021/11/27 09:03:27;;;;;;;;;;;13.30;1.00;;;;;;5012600;28;19997;-87
2021/11/27 09:05:53;;;;;;;;;;;12.50;1.00;;;;;;5013042;28;19921;-86
2021/11/27 09:08:19;;;;;;;;;;;11.80;1.00;;;;;;5015054;28;19953;-87
2021/11/27 09:10:49;;;;;;;;;;;11.30;1.00;;;;;;5014462;28;19913;-86
2021/11/27 09:13:15;;;;;;;;;;;10.80;1.00;;;;;;5012981;28;19941;-87
2021/11/27 09:15:41;;;;;;;;;;;10.50;1.00;;;;;;5016093;28;20019;-87
2021/11/27 09:18:09;;;;;;;;;;;10.30;1.00;;;;;;5012152;28;19910;-87
2021/11/27 09:20:35;;;;;;;;;;;10.30;1.00;;;;;;5012760;28;19941;-87
2021/11/27 09:23:01;;;;;;;;;;;10.20;1.00;;;;;;5015755;28;19921;-88
2021/11/27 09:25:29;;;;;;;;;;;10.00;1.00;;;;;;5012665;28;19934;-87
2021/11/27 09:27:55;;;;;;;;;;;9.70;1.00;;;;;;5009757;28;19914;-88
2021/11/27 09:30:20;;;;;;;;;;;9.40;1.00;;;;;;4997558;28;20009;-88
2021/11/27 09:32:46;;;;;;;;;;;9.20;1.00;;;;;;4995845;28;19953;-88
2021/11/27 09:35:11;;;;;;;;;;;8.80;1.00;;;;;;5000519;28;19921;-84
2021/11/27 09:37:37;;;;;;;;;;;8.60;1.00;;;;;;5015142;28;20278;-85
2021/11/27 09:40:04;;;;;;;;;;;8.50;1.00;;;;;;5016309;28;19917;-86
2021/11/27 09:42:29;;;;;;;;;;;8.30;1.00;;;;;;5001533;28;19925;-85
2021/11/27 09:44:55;;;;;;;;;;;8.30;1.00;;;;;;4997433;28;19917;-86
2021/11/27 09:47:21;;;;;;;;;;;8.20;1.00;;;;;;5012680;28;19909;-86
2021/11/27 09:49:47;;;;;;;;;;;8.20;1.00;;;;;;5009694;28;19913;-86
2021/11/27 09:52:13;;;;;;;;;;;8.20;1.00;;;;;;5015195;28;19925;-86
2021/11/27 09:54:39;;;;;;;;;;;8.00;1.00;;;;;;5013316;28;19914;-85
2021/11/27 09:57:09;;;;;;;;;;;8.00;1.00;;;;;;5017261;28;19971;-86
2021/11/27 09:59:35;;;;;;;;;;;8.00;1.00;;;;;;5018975;28;19914;-85
2021/11/27 10:02:01;;;;;;;;;;;7.90;1.00;;;;;;5018848;28;19909;-86
2021/11/27 10:04:29;;;;;;;;;;;7.90;1.00;;;;;;5014326;28;19913;-85
2021/11/27 10:06:56;;;;;;;;;;;7.80;1.00;;;;;;5011050;28;19921;-85
2021/11/27 10:09:23;;;;;;;;;;;7.80;1.00;;;;;;5022527;28;19917;-84
2021/11/27 10:11:49;;;;;;;;;;;7.80;1.00;;;;;;5019243;28;19967;-85
2021/11/27 10:14:15;;;;;;;;;;;7.70;1.00;;;;;;5027907;28;19914;-86
2021/11/27 10:16:56;;;;;;;;;;;7.60;1.00;;;;;;5021564;28;19956;-85
2021/11/27 10:19:22;;;;;;;;;;;7.60;1.00;;;;;;5022281;28;19917;-86
2021/11/27 10:21:53;;;;;;;;;;;7.60;1.00;;;;;;5020908;28;19917;-86
2021/11/27 10:24:23;;;;;;;;;;;7.50;1.00;;;;;;5021210;28;19917;-86
2021/11/27 10:26:50;;;;;;;;;;;7.50;1.00;;;;;;5021417;28;19909;-87
2021/11/27 10:29:15;;;;;;;;;;;7.50;1.00;;;;;;5009152;28;19968;-85
2021/11/27 10:31:42;;;;;;;;;;;7.50;1.00;;;;;;5009131;28;19914;-86
2021/11/27 10:34:07;;;;;;;;;;;7.60;1.00;;;;;;4996001;28;19910;-86
2021/11/27 10:36:33;;;;;;;;;;;7.60;1.00;;;;;;5004132;28;20377;-86
2021/11/27 10:39:03;;;;;;;;;;;7.60;1.00;;;;;;5016853;28;19901;-86
2021/11/27 10:41:35;;;;;;;;;;;7.60;1.00;;;;;;5002190;28;19910;-87
2021/11/27 10:44:05;;;;;;;;;;;7.60;1.00;;;;;;5002306;28;19945;-86
2021/11/27 10:46:32;;;;;;;;;;;7.60;1.00;;;;;;5018851;28;20385;-86
2021/11/27 10:48:58;;;;;;;;;;;7.60;1.00;;;;;;5014770;28;19910;-88
2021/11/27 10:51:23;;;;;;;;;;;7.60;1.00;;;;;;5016025;28;19920;-88
2021/11/27 10:53:57;;;;;;;;;;;7.60;1.00;;;;;;5011714;28;19981;-85
2021/11/27 10:56:38;;;;;;;;;;;7.70;1.00;;;;;;5013550;28;19917;-85
2021/11/27 10:59:05;;;;;;;;;;;7.80;1.00;;;;;;5016720;28;20305;-85
2021/11/27 11:01:30;;;;;;;;;;;8.00;1.00;;;;;;5015009;28;19917;-85
2021/11/27 11:04:12;;;;;;;;;;;8.10;1.00;;;;;;5014732;28;19914;-85
2021/11/27 11:06:38;;;;;;;;;;;8.30;1.00;;;;;;5013453;28;20366;-85
2021/11/27 11:09:03;;;;;;;;;;;8.70;1.00;;;;;;4994705;28;19914;-85
2021/11/27 11:11:30;;;;;;;;;;;9.70;1.00;;;;;;5003339;28;19909;-87
2021/11/27 11:14:00;;;;;;;;;;;11.10;1.00;;;;;;5009572;28;19917;-86
2021/11/27 11:16:26;;;;;;;;;;;12.50;1.00;;;;;;5007488;28;20317;-86
2021/11/27 11:18:52;;;;;;;;;;;13.80;1.00;;;;;;5012378;28;20004;-87
2021/11/27 11:21:22;;;;;;;;;;;14.90;1.00;;;;;;5012734;28;19964;-87
2021/11/27 11:23:49;;;;;;;;;;;15.60;1.00;;;;;;5016237;28;19913;-87
2021/11/27 11:26:14;;;;;;;;;;;16.40;1.00;;;;;;4996718;28;20408;-86
2021/11/27 11:28:41;;;;;;;;;;;17.00;1.00;;;;;;5002624;28;19921;-86
2021/11/27 11:31:09;;;;;;;;;;;17.60;1.00;;;;;;5009808;28;20003;-86
2021/11/27 11:33:37;;;;;;;;;;;18.10;1.00;;;;;;5013967;28;19940;-86
2021/11/27 11:36:04;;;;;;;;;;;18.50;99.90;;;;;;5011643;28;19913;-86
2021/11/27 11:38:29;;;;;;;;;;;19.00;99.90;;;;;;5015026;28;19918;-86
2021/11/27 11:40:55;;;;;;;;;;;19.20;99.90;;;;;;5011064;28;19925;-86
2021/11/27 11:43:20;;;;;;;;;;;19.40;99.90;;;;;;5010803;28;19984;-86
2021/11/27 11:45:46;;;;;;;;;;;19.60;99.90;;;;;;5018644;28;19909;-85
2021/11/27 11:48:17;;;;;;;;;;;19.60;99.90;;;;;;5013598;28;19914;-86
2021/11/27 11:50:43;;;;;;;;;;;19.80;99.90;;;;;;5015193;28;19909;-86
2021/11/27 11:53:24;;;;;;;;;;;19.90;99.90;;;;;;5015983;28;19956;-86
2021/11/27 11:55:54;;;;;;;;;;;20.00;99.90;;;;;;5013482;28;20440;-86
2021/11/27 11:58:25;;;;;;;;;;;19.70;99.90;;;;;;5014806;28;21660;-86
2021/11/27 12:00:55;;;;;;;;;;;19.90;99.90;;;;;;5016680;28;19909;-85
2021/11/27 12:03:22;;;;;;;;;;;20.00;99.90;;;;;;5017218;28;19949;-85
2021/11/27 12:05:53;;;;;;;;;;;20.20;99.90;;;;;;5014434;28;19920;-85
2021/11/27 12:08:39;;;;;;;;;;;20.10;99.90;;;;;;5008698;28;19909;-86
2021/11/27 12:11:04;;;;;;;;;;;20.20;99.90;;;;;;5014674;28;19910;-86
2021/11/27 12:13:33;;;;;;;;;;;19.80;99.90;;;;;;5013702;28;19963;-86
2021/11/27 12:16:03;;;;;;;;;;;19.60;99.90;;;;;;5016143;28;19913;-85
2021/11/27 12:18:28;;;;;;;;;;;18.70;99.90;;;;;;5017876;28;20401;-85
2021/11/27 12:20:57;;;;;;;;;;;18.20;99.90;;;;;;5014364;28;19910;-86
2021/11/27 12:23:26;;;;;;;;;;;17.90;99.90;;;;;;5014907;28;19914;-85
2021/11/27 12:26:10;;;;;;;;;;;17.40;99.90;;;;;;5016780;28;20409;-85
2021/11/27 12:28:40;;;;;;;;;;;16.80;99.90;;;;;;5015246;28;19960;-85
2021/11/27 12:31:12;;;;;;;;;;;16.40;99.90;;;;;;5016681;28;19909;-85
2021/11/27 12:33:44;;;;;;;;;;;15.70;99.90;;;;;;5018639;28;19914;-85
2021/11/27 12:36:39;;;;;;;;;;;14.80;99.90;;;;;;5021529;28;19917;-85
2021/11/27 12:39:08;;;;;;;;;;;14.80;99.90;;;;;;5021119;28;19925;-86
2021/11/27 12:41:38;;;;;;;;;;;14.90;99.90;;;;;;5014482;28;19920;-86
2021/11/27 12:44:13;;;;;;;;;;;15.40;99.90;;;;;;5018664;28;20421;-85
2021/11/27 12:46:42;;;;;;;;;;;15.90;99.90;;;;;;5016904;28;19916;-83
2021/11/27 12:49:08;;;;;;;;;;;16.50;99.90;;;;;;5016298;28;19910;-83
2021/11/27 12:51:33;;;;;;;;;;;16.90;99.90;;;;;;5016218;28;19910;-85
2021/11/27 12:53:59;;;;;;;;;;;17.20;99.90;;;;;;5015966;28;19914;-85
2021/11/27 12:56:25;;;;;;;;;;;17.30;99.90;;;;;;5013765;28;19920;-84
2021/11/27 12:58:51;;;;;;;;;;;17.50;99.90;;;;;;5019568;28;19917;-85
2021/11/27 13:01:25;;;;;;;;;;;17.70;99.90;;;;;;5017379;28;19910;-83
2021/11/27 13:03:54;;;;;;;;;;;17.70;99.90;;;;;;5014408;28;19913;-84
2021/11/27 13:06:20;;;;;;;;;;;17.60;99.90;;;;;;5015964;28;19956;-82
2021/11/27 13:08:45;;;;;;;;;;;17.60;99.90;;;;;;5015870;28;19909;-83
2021/11/27 13:11:12;;;;;;;;;;;17.50;99.90;;;;;;5014936;28;19951;-83
2021/11/27 13:13:38;;;;;;;;;;;17.30;99.90;;;;;;5015669;28;20635;-83
2021/11/27 13:16:08;;;;;;;;;;;16.70;99.90;;;;;;5009349;28;19977;-83
2021/11/27 13:18:34;;;;;;;;;;;16.00;99.90;;;;;;5014699;28;20316;-82
2021/11/27 13:21:01;;;;;;;;;;;15.40;99.90;;;;;;5014147;28;19918;-83
2021/11/27 13:23:32;;;;;;;;;;;14.70;99.90;;;;;;5014022;28;20005;-83
2021/11/27 13:26:02;;;;;;;;;;;13.90;99.90;;;;;;5012754;28;20444;-81
2021/11/27 13:28:31;;;;;;;;;;;13.30;99.90;;;;;;4996609;28;19914;-83
2021/11/27 13:30:58;;;;;;;;;;;12.90;99.90;;;;;;4998467;28;19968;-82
2021/11/27 13:33:25;;;;;;;;;;;13.20;99.90;;;;;;5007022;28;19914;-82
2021/11/27 13:35:51;;;;;;;;;;;13.10;99.90;;;;;;5008139;28;19957;-80
2021/11/27 13:38:26;;;;;;;;;;;12.90;99.90;;;;;;5014071;28;19916;-82
2021/11/27 13:40:52;;;;;;;;;;;12.50;99.90;;;;;;5014555;28;20397;-82
2021/11/27 13:43:17;;;;;;;;;;;12.10;99.90;;;;;;5017924;28;19932;-82
2021/11/27 13:45:43;;;;;;;;;;;11.80;99.90;;;;;;5017197;28;19909;-82
2021/11/27 13:48:09;;;;;;;;;;;11.60;99.90;;;;;;5018970;28;20365;-81
2021/11/27 13:50:41;;;;;;;;;;;11.50;99.90;;;;;;5005810;28;19917;-82
2021/11/27 13:53:07;;;;;;;;;;;11.80;99.90;;;;;;4998872;28;19914;-80
2021/11/27 13:55:33;;;;;;;;;;;12.40;99.90;;;;;;5006829;28;19945;-81
2021/11/27 13:58:02;;;;;;;;;;;12.80;99.90;;;;;;5014198;28;19913;-82
2021/11/27 14:00:36;;;;;;;;;;;13.20;99.90;;;;;;5014442;28;19921;-81
2021/11/27 14:03:22;;;;;;;;;;;13.30;99.90;;;;;;5015921;28;19914;-81
2021/11/27 14:05:49;;;;;;;;;;;13.00;99.90;;;;;;4999537;28;19949;-81
2021/11/27 14:08:25;;;;;;;;;;;12.60;99.90;;;;;;5001416;28;19914;-81
2021/11/27 14:11:04;;;;;;;;;;;12.20;99.90;;;;;;5014730;28;19909;-81
2021/11/27 14:13:30;;;;;;;;;;;11.80;99.90;;;;;;5009957;28;19924;-81
2021/11/27 14:15:56;;;;;;;;;;;11.50;99.90;;;;;;5018734;28;19921;-81
2021/11/27 14:18:24;;;;;;;;;;;11.40;99.90;;;;;;5017895;28;20282;-81
2021/11/27 14:20:51;;;;;;;;;;;11.30;99.90;;;;;;5017839;28;20424;-81
2021/11/27 14:23:27;;;;;;;;;;;11.30;99.90;;;;;;5017897;28;19913;-81
2021/11/27 14:26:01;;;;;;;;;;;11.40;99.90;;;;;;5017484;28;20004;-80
2021/11/27 14:28:27;;;;;;;;;;;11.50;99.90;;;;;;5018226;28;20011;-80
2021/11/27 14:30:53;;;;;;;;;;;11.70;99.90;;;;;;5016708;28;19968;-82
2021/11/27 14:33:26;;;;;;;;;;;11.70;99.90;;;;;;5010699;28;19914;-82
2021/11/27 14:35:59;;;;;;;;;;;11.60;99.90;;;;;;5016123;28;20050;-81